sensor_id;sensor_type;location;lat;lon;timestamp;pressure;altitude;pressure_sealevel;temperature;humidity
39301;BME280;25019;42.626;23.380;2023-11-21T00:00:14;94272.59;;;3.09;100.00
39301;BME280;25019;42.626;23.380;2023-11-21T00:02:41;94276.81;;;3.10;100.00
39301;BME280;25019;42.626;23.380;2023-11-21T00:05:08;94218.78;;;2.73;100.00
39301;BME280;25019;42.626;23.380;2023-11-21T00:07:35;94283.28;;;3.14;100.00
39301;BME280;25019;42.626;23.380;2023-11-21T00:10:01;94265.16;;;3.06;100.00
39301;BME280;25019;42.626;23.380;2023-11-21T00:12:28;94265.16;;;3.06;100.00
39301;BME280;25019;42.626;23.380;2023-11-21T00:14:54;94259.09;;;2.99;100.00
39301;BME280;25019;42.626;23.380;2023-11-21T00:17:20;94278.25;;;3.13;100.00
39301;BME280;25019;42.626;23.380;2023-11-21T00:19:46;94190.13;;;2.51;100.00
39301;BME280;25019;42.626;23.380;2023-11-21T00:22:11;94242.16;;;2.81;100.00
39301;BME280;25019;42.626;23.380;2023-11-21T00:24:37;94281.25;;;3.17;100.00
39301;BME280;25019;42.626;23.380;2023-11-21T00:27:03;94279.88;;;3.14;100.00
39301;BME280;25019;42.626;23.380;2023-11-21T00:29:29;94167.19;;;2.40;100.00
39301;BME280;25019;42.626;23.380;2023-11-21T00:31:55;94279.47;;;3.17;100.00
39301;BME280;25019;42.626;23.380;2023-11-21T00:34:21;94269.78;;;3.11;100.00
39301;BME280;25019;42.626;23.380;2023-11-21T00:36:46;94258.69;;;3.09;100.00
39301;BME280;25019;42.626;23.380;2023-11-21T00:39:12;94266.50;;;3.22;100.00
39301;BME280;25019;42.626;23.380;2023-11-21T00:41:38;94262.28;;;3.21;100.00
39301;BME280;25019;42.626;23.380;2023-11-21T00:44:04;94265.50;;;3.23;100.00
39301;BME280;25019;42.626;23.380;2023-11-21T00:46:29;94209.25;;;2.85;100.00
39301;BME280;25019;42.626;23.380;2023-11-21T00:48:55;94278.00;;;3.21;100.00
39301;BME280;25019;42.626;23.380;2023-11-21T00:51:21;94282.28;;;3.15;100.00
39301;BME280;25019;42.626;23.380;2023-11-21T00:53:47;94227.44;;;2.80;100.00
39301;BME280;25019;42.626;23.380;2023-11-21T00:56:13;94271.78;;;3.15;100.00
39301;BME280;25019;42.626;23.380;2023-11-21T00:58:41;94267.16;;;3.04;100.00
39301;BME280;25019;42.626;23.380;2023-11-21T01:01:12;94269.97;;;3.03;100.00
39301;BME280;25019;42.626;23.380;2023-11-21T01:03:38;94241.94;;;2.90;100.00
39301;BME280;25019;42.626;23.380;2023-11-21T01:06:04;94265.75;;;3.02;100.00
39301;BME280;25019;42.626;23.380;2023-11-21T01:08:33;94259.31;;;2.84;100.00
39301;BME280;25019;42.626;23.380;2023-11-21T01:10:58;94256.09;;;2.82;100.00
39301;BME280;25019;42.626;23.380;2023-11-21T01:13:25;94272.22;;;2.85;100.00
39301;BME280;25019;42.626;23.380;2023-11-21T01:15:55;94175.84;;;2.34;100.00
39301;BME280;25019;42.626;23.380;2023-11-21T01:18:21;94258.09;;;2.80;100.00
39301;BME280;25019;42.626;23.380;2023-11-21T01:20:46;94248.41;;;2.74;100.00
39301;BME280;25019;42.626;23.380;2023-11-21T01:23:15;94239.34;;;2.63;100.00
39301;BME280;25019;42.626;23.380;2023-11-21T01:25:41;94274.84;;;2.79;100.00
39301;BME280;25019;42.626;23.380;2023-11-21T01:28:09;94268.22;;;2.76;100.00
39301;BME280;25019;42.626;23.380;2023-11-21T01:30:34;94239.75;;;2.60;100.00
39301;BME280;25019;42.626;23.380;2023-11-21T01:33:01;94168.19;;;2.12;100.00
39301;BME280;25019;42.626;23.380;2023-11-21T01:35:26;94240.75;;;2.59;100.00
39301;BME280;25019;42.626;23.380;2023-11-21T01:37:52;94220.81;;;2.51;100.00
39301;BME280;25019;42.626;23.380;2023-11-21T01:40:17;94245.41;;;2.63;100.00
39301;BME280;25019;42.626;23.380;2023-11-21T01:42:44;94261.94;;;2.64;100.00
39301;BME280;25019;42.626;23.380;2023-11-21T01:45:12;94261.72;;;2.59;100.00
39301;BME280;25019;42.626;23.380;2023-11-21T01:47:38;94169.38;;;2.03;100.00
39301;BME280;25019;42.626;23.380;2023-11-21T01:50:07;94193.59;;;2.18;100.00
39301;BME280;25019;42.626;23.380;2023-11-21T01:52:35;94256.91;;;2.62;100.00
39301;BME280;25019;42.626;23.380;2023-11-21T01:55:02;94245.59;;;2.62;100.00
39301;BME280;25019;42.626;23.380;2023-11-21T01:57:28;94238.97;;;2.59;100.00
39301;BME280;25019;42.626;23.380;2023-11-21T01:59:55;94244.81;;;2.61;100.00
39301;BME280;25019;42.626;23.380;2023-11-21T02:02:21;94239.75;;;2.53;100.00
39301;BME280;25019;42.626;23.380;2023-11-21T02:04:47;94249.44;;;2.59;100.00
39301;BME280;25019;42.626;23.380;2023-11-21T02:07:12;94235.53;;;2.52;100.00
39301;BME280;25019;42.626;23.380;2023-11-21T02:09:38;94254.66;;;2.52;100.00
39301;BME280;25019;42.626;23.380;2023-11-21T02:12:08;94199.84;;;2.17;100.00
39301;BME280;25019;42.626;23.380;2023-11-21T02:14:38;94251.88;;;2.47;100.00
39301;BME280;25019;42.626;23.380;2023-11-21T02:17:04;94194.00;;;2.08;100.00
39301;BME280;25019;42.626;23.380;2023-11-21T02:19:30;94238.13;;;2.38;100.00
39301;BME280;25019;42.626;23.380;2023-11-21T02:21:59;94202.03;;;2.14;100.00
39301;BME280;25019;42.626;23.380;2023-11-21T02:24:29;94260.91;;;2.51;100.00
39301;BME280;25019;42.626;23.380;2023-11-21T02:26:54;94256.09;;;2.55;100.00
39301;BME280;25019;42.626;23.380;2023-11-21T02:29:20;94248.03;;;2.57;100.00
39301;BME280;25019;42.626;23.380;2023-11-21T02:31:54;94255.47;;;2.60;100.00
39301;BME280;25019;42.626;23.380;2023-11-21T02:34:22;94244.59;;;2.56;100.00
39301;BME280;25019;42.626;23.380;2023-11-21T02:36:48;94237.31;;;2.51;100.00
39301;BME280;25019;42.626;23.380;2023-11-21T02:39:15;94247.22;;;2.56;100.00
39301;BME280;25019;42.626;23.380;2023-11-21T02:41:42;94251.66;;;2.55;100.00
39301;BME280;25019;42.626;23.380;2023-11-21T02:44:08;94171.00;;;2.04;100.00
39301;BME280;25019;42.626;23.380;2023-11-21T02:46:35;94237.94;;;2.47;100.00
39301;BME280;25019;42.626;23.380;2023-11-21T02:49:04;94187.53;;;2.04;100.00
39301;BME280;25019;42.626;23.380;2023-11-21T02:51:36;94253.66;;;2.47;100.00
39301;BME280;25019;42.626;23.380;2023-11-21T02:54:03;94138.31;;;1.66;100.00
39301;BME280;25019;42.626;23.380;2023-11-21T02:56:33;94257.09;;;2.40;100.00
39301;BME280;25019;42.626;23.380;2023-11-21T02:59:00;94226.66;;;2.19;100.00
39301;BME280;25019;42.626;23.380;2023-11-21T03:01:26;94200.41;;;1.92;100.00
39301;BME280;25019;42.626;23.380;2023-11-21T03:03:53;94244.16;;;2.19;100.00
39301;BME280;25019;42.626;23.380;2023-11-21T03:06:20;94191.91;;;1.84;100.00
39301;BME280;25019;42.626;23.380;2023-11-21T03:08:46;94234.47;;;2.13;100.00
39301;BME280;25019;42.626;23.380;2023-11-21T03:11:13;94243.97;;;2.20;100.00
39301;BME280;25019;42.626;23.380;2023-11-21T03:13:41;94194.97;;;1.87;100.00
39301;BME280;25019;42.626;23.380;2023-11-21T03:16:11;94241.53;;;2.19;100.00
39301;BME280;25019;42.626;23.380;2023-11-21T03:18:38;94217.75;;;2.00;100.00
39301;BME280;25019;42.626;23.380;2023-11-21T03:21:04;94236.31;;;2.19;100.00
39301;BME280;25019;42.626;23.380;2023-11-21T03:23:31;94235.91;;;2.15;100.00
39301;BME280;25019;42.626;23.380;2023-11-21T03:25:56;94243.56;;;2.17;100.00
39301;BME280;25019;42.626;23.380;2023-11-21T03:28:22;94254.25;;;2.22;100.00
39301;BME280;25019;42.626;23.380;2023-11-21T03:30:49;94197.97;;;1.84;100.00
39301;BME280;25019;42.626;23.380;2023-11-21T03:33:14;94267.16;;;2.23;100.00
39301;BME280;25019;42.626;23.380;2023-11-21T03:35:40;94255.88;;;2.23;100.00
39301;BME280;25019;42.626;23.380;2023-11-21T03:38:07;94265.75;;;2.28;100.00
39301;BME280;25019;42.626;23.380;2023-11-21T03:40:33;94233.06;;;2.03;100.00
39301;BME280;25019;42.626;23.380;2023-11-21T03:42:59;94263.34;;;2.26;100.00
39301;BME280;25019;42.626;23.380;2023-11-21T03:45:25;94250.03;;;2.21;100.00
39301;BME280;25019;42.626;23.380;2023-11-21T03:47:51;94188.91;;;1.73;100.00
39301;BME280;25019;42.626;23.380;2023-11-21T03:50:16;94252.63;;;2.14;100.00
39301;BME280;25019;42.626;23.380;2023-11-21T03:52:43;94245.34;;;2.09;100.00
39301;BME280;25019;42.626;23.380;2023-11-21T03:55:10;94242.56;;;2.11;100.00
39301;BME280;25019;42.626;23.380;2023-11-21T03:57:36;94226.00;;;2.04;100.00
39301;BME280;25019;42.626;23.380;2023-11-21T04:00:03;94221.97;;;2.01;100.00
39301;BME280;25019;42.626;23.380;2023-11-21T04:02:37;94227.00;;;2.03;100.00
39301;BME280;25019;42.626;23.380;2023-11-21T04:05:03;94184.03;;;1.70;100.00
39301;BME280;25019;42.626;23.380;2023-11-21T04:07:30;94221.97;;;2.01;100.00
39301;BME280;25019;42.626;23.380;2023-11-21T04:09:55;94216.13;;;1.99;100.00
39301;BME280;25019;42.626;23.380;2023-11-21T04:12:21;94162.69;;;1.67;100.00
39301;BME280;25019;42.626;23.380;2023-11-21T04:14:47;94226.63;;;2.06;100.00
39301;BME280;25019;42.626;23.380;2023-11-21T04:17:12;94220.38;;;2.00;100.00
39301;BME280;25019;42.626;23.380;2023-11-21T04:19:38;94173.78;;;1.75;100.00
39301;BME280;25019;42.626;23.380;2023-11-21T04:22:04;94229.63;;;2.09;100.00
39301;BME280;25019;42.626;23.380;2023-11-21T04:24:29;94231.06;;;2.05;100.00
39301;BME280;25019;42.626;23.380;2023-11-21T04:26:55;94172.13;;;1.68;100.00
39301;BME280;25019;42.626;23.380;2023-11-21T04:29:20;94218.38;;;2.02;100.00
39301;BME280;25019;42.626;23.380;2023-11-21T04:31:46;94123.34;;;1.33;100.00
39301;BME280;25019;42.626;23.380;2023-11-21T04:34:14;94231.63;;;2.01;100.00
39301;BME280;25019;42.626;23.380;2023-11-21T04:36:40;94231.47;;;2.02;100.00
39301;BME280;25019;42.626;23.380;2023-11-21T04:39:05;94233.06;;;2.03;100.00
39301;BME280;25019;42.626;23.380;2023-11-21T04:41:32;94184.84;;;1.64;100.00
39301;BME280;25019;42.626;23.380;2023-11-21T04:43:58;94223.59;;;2.02;100.00
39301;BME280;25019;42.626;23.380;2023-11-21T04:46:26;94211.66;;;1.79;100.00
39301;BME280;25019;42.626;23.380;2023-11-21T04:48:52;94138.63;;;1.29;100.00
39301;BME280;25019;42.626;23.380;2023-11-21T04:51:17;94217.09;;;1.78;100.00
39301;BME280;25019;42.626;23.380;2023-11-21T04:53:43;94230.00;;;1.86;100.00
39301;BME280;25019;42.626;23.380;2023-11-21T04:56:08;94165.28;;;1.46;100.00
39301;BME280;25019;42.626;23.380;2023-11-21T04:58:34;94118.88;;;1.20;100.00
39301;BME280;25019;42.626;23.380;2023-11-21T05:01:00;94227.41;;;1.93;100.00
39301;BME280;25019;42.626;23.380;2023-11-21T05:03:26;94234.66;;;1.98;100.00
39301;BME280;25019;42.626;23.380;2023-11-21T05:05:52;94216.13;;;1.92;100.00
39301;BME280;25019;42.626;23.380;2023-11-21T05:08:17;94234.69;;;2.11;100.00
39301;BME280;25019;42.626;23.380;2023-11-21T05:10:45;94220.78;;;2.04;100.00
39301;BME280;25019;42.626;23.380;2023-11-21T05:13:11;94182.88;;;1.86;100.00
39301;BME280;25019;42.626;23.380;2023-11-21T05:15:37;94209.72;;;2.15;100.00
39301;BME280;25019;42.626;23.380;2023-11-21T05:18:04;94221.59;;;2.24;100.00
39301;BME280;25019;42.626;23.380;2023-11-21T05:20:30;94157.88;;;1.84;100.00
39301;BME280;25019;42.626;23.380;2023-11-21T05:22:56;94217.16;;;2.32;100.00
39301;BME280;25019;42.626;23.380;2023-11-21T05:25:21;94212.53;;;2.34;100.00
39301;BME280;25019;42.626;23.380;2023-11-21T05:27:47;94215.16;;;2.40;100.00
39301;BME280;25019;42.626;23.380;2023-11-21T05:30:14;94223.00;;;2.40;100.00
39301;BME280;25019;42.626;23.380;2023-11-21T05:32:40;94180.28;;;2.06;100.00
39301;BME280;25019;42.626;23.380;2023-11-21T05:35:09;94234.53;;;2.46;100.00
39301;BME280;25019;42.626;23.380;2023-11-21T05:37:38;94231.28;;;2.44;100.00
39301;BME280;25019;42.626;23.380;2023-11-21T05:40:07;94240.16;;;2.50;100.00
39301;BME280;25019;42.626;23.380;2023-11-21T05:42:34;94231.91;;;2.46;100.00
39301;BME280;25019;42.626;23.380;2023-11-21T05:45:01;94233.91;;;2.51;100.00
39301;BME280;25019;42.626;23.380;2023-11-21T05:47:44;94236.53;;;2.51;100.00
39301;BME280;25019;42.626;23.380;2023-11-21T05:50:12;94225.63;;;2.40;100.00
39301;BME280;25019;42.626;23.380;2023-11-21T05:52:44;94239.38;;;2.56;100.00
39301;BME280;25019;42.626;23.380;2023-11-21T05:55:10;94229.47;;;2.58;100.00
39301;BME280;25019;42.626;23.380;2023-11-21T05:57:37;94155.50;;;2.09;100.00
39301;BME280;25019;42.626;23.380;2023-11-21T06:00:08;94170.81;;;2.19;100.00
39301;BME280;25019;42.626;23.380;2023-11-21T06:02:53;94220.00;;;2.57;100.00
39301;BME280;25019;42.626;23.380;2023-11-21T06:05:21;94238.94;;;2.66;100.00
39301;BME280;25019;42.626;23.380;2023-11-21T06:07:49;94191.16;;;2.37;100.00
39301;BME280;25019;42.626;23.380;2023-11-21T06:10:15;94232.28;;;2.70;100.00
39301;BME280;25019;42.626;23.380;2023-11-21T06:12:43;94238.53;;;2.76;100.00
39301;BME280;25019;42.626;23.380;2023-11-21T06:15:10;94165.16;;;2.29;100.00
39301;BME280;25019;42.626;23.380;2023-11-21T06:17:39;94194.59;;;2.44;100.00
39301;BME280;25019;42.626;23.380;2023-11-21T06:20:06;94254.47;;;2.88;100.00
39301;BME280;25019;42.626;23.380;2023-11-21T06:22:38;94248.19;;;2.89;100.00
39301;BME280;25019;42.626;23.380;2023-11-21T06:25:06;94186.72;;;2.51;100.00
39301;BME280;25019;42.626;23.380;2023-11-21T06:27:33;94253.44;;;2.95;100.00
39301;BME280;25019;42.626;23.380;2023-11-21T06:29:59;94232.66;;;2.94;100.00
39301;BME280;25019;42.626;23.380;2023-11-21T06:32:25;94259.69;;;3.08;100.00
39301;BME280;25019;42.626;23.380;2023-11-21T06:34:51;94253.63;;;3.14;100.00
39301;BME280;25019;42.626;23.380;2023-11-21T06:37:20;94201.63;;;2.84;100.00
39301;BME280;25019;42.626;23.380;2023-11-21T06:39:49;94193.94;;;2.82;100.00
39301;BME280;25019;42.626;23.380;2023-11-21T06:42:18;94208.66;;;2.97;100.00
39301;BME280;25019;42.626;23.380;2023-11-21T06:44:45;94262.88;;;3.30;100.00
39301;BME280;25019;42.626;23.380;2023-11-21T06:47:11;94200.38;;;2.93;100.00
39301;BME280;25019;42.626;23.380;2023-11-21T06:49:36;94275.34;;;3.48;100.00
39301;BME280;25019;42.626;23.380;2023-11-21T06:52:04;94237.22;;;3.25;100.00
39301;BME280;25019;42.626;23.380;2023-11-21T06:54:31;94272.13;;;3.39;100.00
39301;BME280;25019;42.626;23.380;2023-11-21T06:56:58;94260.78;;;3.52;100.00
39301;BME280;25019;42.626;23.380;2023-11-21T06:59:23;94202.72;;;3.22;100.00
39301;BME280;25019;42.626;23.380;2023-11-21T07:01:50;94281.31;;;3.75;100.00
39301;BME280;25019;42.626;23.380;2023-11-21T07:04:16;94252.44;;;3.69;100.00
39301;BME280;25019;42.626;23.380;2023-11-21T07:06:43;94278.25;;;3.79;100.00
39301;BME280;25019;42.626;23.380;2023-11-21T07:09:09;94283.06;;;3.88;100.00
39301;BME280;25019;42.626;23.380;2023-11-21T07:11:35;94275.97;;;3.96;100.00
39301;BME280;25019;42.626;23.380;2023-11-21T07:14:00;94209.22;;;3.65;100.00
39301;BME280;25019;42.626;23.380;2023-11-21T07:16:38;94249.69;;;3.96;100.00
39301;BME280;25019;42.626;23.380;2023-11-21T07:19:04;94255.03;;;4.14;100.00
39301;BME280;25019;42.626;23.380;2023-11-21T07:21:34;94274.03;;;4.16;100.00
39301;BME280;25019;42.626;23.380;2023-11-21T07:24:02;94259.91;;;4.11;100.00
39301;BME280;25019;42.626;23.380;2023-11-21T07:26:28;94208.91;;;3.86;100.00
39301;BME280;25019;42.626;23.380;2023-11-21T07:28:54;94269.72;;;4.29;100.00
39301;BME280;25019;42.626;23.380;2023-11-21T07:31:21;94175.81;;;3.79;100.00
39301;BME280;25019;42.626;23.380;2023-11-21T07:33:47;94266.81;;;4.37;100.00
39301;BME280;25019;42.626;23.380;2023-11-21T07:36:13;94209.59;;;4.07;100.00
39301;BME280;25019;42.626;23.380;2023-11-21T07:38:39;94248.47;;;4.30;100.00
39301;BME280;25019;42.626;23.380;2023-11-21T07:41:05;94263.41;;;4.37;100.00
39301;BME280;25019;42.626;23.380;2023-11-21T07:43:37;94193.38;;;4.17;100.00
39301;BME280;25019;42.626;23.380;2023-11-21T07:46:03;94162.84;;;3.84;100.00
39301;BME280;25019;42.626;23.380;2023-11-21T07:48:36;94266.25;;;4.60;100.00
39301;BME280;25019;42.626;23.380;2023-11-21T07:51:02;94159.88;;;4.05;100.00
39301;BME280;25019;42.626;23.380;2023-11-21T07:53:32;94255.00;;;4.78;100.00
39301;BME280;25019;42.626;23.380;2023-11-21T07:55:58;94250.84;;;4.89;100.00
39301;BME280;25019;42.626;23.380;2023-11-21T07:58:27;94180.31;;;4.54;100.00
39301;BME280;25019;42.626;23.380;2023-11-21T08:00:53;94169.38;;;4.57;100.00
39301;BME280;25019;42.626;23.380;2023-11-21T08:03:19;94184.16;;;4.77;100.00
39301;BME280;25019;42.626;23.380;2023-11-21T08:05:45;94234.53;;;5.24;100.00
39301;BME280;25019;42.626;23.380;2023-11-21T08:08:10;94219.25;;;5.15;100.00
39301;BME280;25019;42.626;23.380;2023-11-21T08:10:36;94236.41;;;5.36;100.00
39301;BME280;25019;42.626;23.380;2023-11-21T08:13:03;94216.97;;;5.37;100.00
39301;BME280;25019;42.626;23.380;2023-11-21T08:15:29;94229.22;;;5.62;100.00
39301;BME280;25019;42.626;23.380;2023-11-21T08:17:57;94119.69;;;5.05;100.00
39301;BME280;25019;42.626;23.380;2023-11-21T08:20:24;94175.47;;;5.51;100.00
39301;BME280;25019;42.626;23.380;2023-11-21T08:22:50;94238.41;;;5.90;100.00
39301;BME280;25019;42.626;23.380;2023-11-21T08:25:17;94189.91;;;5.79;100.00
39301;BME280;25019;42.626;23.380;2023-11-21T08:27:45;94205.13;;;5.95;100.00
39301;BME280;25019;42.626;23.380;2023-11-21T08:30:11;94189.16;;;5.90;100.00
39301;BME280;25019;42.626;23.380;2023-11-21T08:32:39;94229.66;;;6.26;100.00
39301;BME280;25019;42.626;23.380;2023-11-21T08:35:05;94237.78;;;6.25;100.00
39301;BME280;25019;42.626;23.380;2023-11-21T08:37:31;94167.91;;;6.04;100.00
39301;BME280;25019;42.626;23.380;2023-11-21T08:39:58;94213.63;;;6.40;100.00
39301;BME280;25019;42.626;23.380;2023-11-21T08:42:27;94230.91;;;6.66;100.00
39301;BME280;25019;42.626;23.380;2023-11-21T08:44:56;94223.06;;;6.71;100.00
39301;BME280;25019;42.626;23.380;2023-11-21T08:47:23;94204.38;;;6.61;100.00
39301;BME280;25019;42.626;23.380;2023-11-21T08:49:50;94151.91;;;6.29;100.00
39301;BME280;25019;42.626;23.380;2023-11-21T08:52:19;94227.25;;;6.91;100.00
39301;BME280;25019;42.626;23.380;2023-11-21T08:54:48;94170.06;;;6.49;100.00
39301;BME280;25019;42.626;23.380;2023-11-21T08:57:23;94227.69;;;7.00;100.00
39301;BME280;25019;42.626;23.380;2023-11-21T08:59:49;94226.53;;;7.08;100.00
39301;BME280;25019;42.626;23.380;2023-11-21T09:02:21;94101.47;;;6.25;100.00
39301;BME280;25019;42.626;23.380;2023-11-21T09:04:49;94212.63;;;7.12;100.00
39301;BME280;25019;42.626;23.380;2023-11-21T09:07:14;94196.31;;;7.15;99.88
39301;BME280;25019;42.626;23.380;2023-11-21T09:09:40;94112.81;;;6.50;99.40
39301;BME280;25019;42.626;23.380;2023-11-21T09:12:06;94074.59;;;6.28;100.00
39301;BME280;25019;42.626;23.380;2023-11-21T09:14:32;94125.22;;;6.73;100.00
39301;BME280;25019;42.626;23.380;2023-11-21T09:16:57;94166.84;;;7.07;100.00
39301;BME280;25019;42.626;23.380;2023-11-21T09:19:23;94100.78;;;6.54;100.00
39301;BME280;25019;42.626;23.380;2023-11-21T09:21:48;94136.47;;;6.80;100.00
39301;BME280;25019;42.626;23.380;2023-11-21T09:24:14;94105.03;;;6.55;100.00
39301;BME280;25019;42.626;23.380;2023-11-21T09:26:40;94083.78;;;6.50;100.00
39301;BME280;25019;42.626;23.380;2023-11-21T09:29:06;94092.63;;;6.55;100.00
39301;BME280;25019;42.626;23.380;2023-11-21T09:31:33;94142.84;;;7.08;100.00
39301;BME280;25019;42.626;23.380;2023-11-21T09:33:59;94119.88;;;7.09;100.00
39301;BME280;25019;42.626;23.380;2023-11-21T09:36:24;94122.28;;;7.22;100.00
39301;BME280;25019;42.626;23.380;2023-11-21T09:38:53;94121.09;;;7.30;100.00
39301;BME280;25019;42.626;23.380;2023-11-21T09:41:34;94113.63;;;7.27;100.00
39301;BME280;25019;42.626;23.380;2023-11-21T09:44:07;94087.44;;;7.25;100.00
39301;BME280;25019;42.626;23.380;2023-11-21T09:46:37;94055.34;;;7.04;100.00
39301;BME280;25019;42.626;23.380;2023-11-21T09:49:10;94113.03;;;7.37;100.00
39301;BME280;25019;42.626;23.380;2023-11-21T09:51:42;94073.47;;;7.13;100.00
39301;BME280;25019;42.626;23.380;2023-11-21T09:54:10;94094.06;;;7.40;100.00
39301;BME280;25019;42.626;23.380;2023-11-21T09:56:40;93976.00;;;6.82;100.00
39301;BME280;25019;42.626;23.380;2023-11-21T09:59:06;94045.47;;;7.41;100.00
39301;BME280;25019;42.626;23.380;2023-11-21T10:01:38;94064.66;;;7.65;100.00
39301;BME280;25019;42.626;23.380;2023-11-21T10:04:05;94057.06;;;7.86;99.98
39301;BME280;25019;42.626;23.380;2023-11-21T10:06:40;94025.00;;;7.82;97.13
39301;BME280;25019;42.626;23.380;2023-11-21T10:09:12;94055.97;;;7.99;96.74
39301;BME280;25019;42.626;23.380;2023-11-21T10:11:42;94046.72;;;8.18;96.05
39301;BME280;25019;42.626;23.380;2023-11-21T10:14:12;94027.44;;;8.18;94.23
39301;BME280;25019;42.626;23.380;2023-11-21T10:16:40;94023.75;;;8.19;92.91
39301;BME280;25019;42.626;23.380;2023-11-21T10:19:09;94049.44;;;8.58;92.96
39301;BME280;25019;42.626;23.380;2023-11-21T10:21:35;94041.31;;;8.64;91.20
39301;BME280;25019;42.626;23.380;2023-11-21T10:24:01;94037.56;;;8.60;90.53
39301;BME280;25019;42.626;23.380;2023-11-21T10:26:29;93964.72;;;8.18;90.04
39301;BME280;25019;42.626;23.380;2023-11-21T10:29:03;94031.91;;;8.74;89.41
39301;BME280;25019;42.626;23.380;2023-11-21T10:31:32;93958.44;;;8.42;89.12
39301;BME280;25019;42.626;23.380;2023-11-21T10:34:16;93977.78;;;8.64;87.73
39301;BME280;25019;42.626;23.380;2023-11-21T10:36:43;94027.34;;;9.13;86.54
39301;BME280;25019;42.626;23.380;2023-11-21T10:39:09;94032.59;;;9.31;85.56
39301;BME280;25019;42.626;23.380;2023-11-21T10:41:37;93960.16;;;8.97;84.74
39301;BME280;25019;42.626;23.380;2023-11-21T10:44:03;94010.22;;;9.49;83.48
39301;BME280;25019;42.626;23.380;2023-11-21T10:46:33;94008.66;;;9.53;82.69
39301;BME280;25019;42.626;23.380;2023-11-21T10:48:59;94012.81;;;9.71;81.98
39301;BME280;25019;42.626;23.380;2023-11-21T10:51:25;94014.50;;;9.82;82.78
39301;BME280;25019;42.626;23.380;2023-11-21T10:53:52;93946.41;;;9.55;82.55
39301;BME280;25019;42.626;23.380;2023-11-21T10:56:19;93939.94;;;9.46;80.71
39301;BME280;25019;42.626;23.380;2023-11-21T10:58:48;94012.22;;;9.96;80.19
39301;BME280;25019;42.626;23.380;2023-11-21T11:01:17;93962.72;;;9.74;80.24
39301;BME280;25019;42.626;23.380;2023-11-21T11:03:44;93973.44;;;9.90;79.88
39301;BME280;25019;42.626;23.380;2023-11-21T11:06:10;93936.72;;;9.71;79.35
39301;BME280;25019;42.626;23.380;2023-11-21T11:08:39;93919.41;;;9.64;79.20
39301;BME280;25019;42.626;23.380;2023-11-21T11:11:09;93985.47;;;10.03;78.89
39301;BME280;25019;42.626;23.380;2023-11-21T11:13:37;93984.47;;;10.09;79.22
39301;BME280;25019;42.626;23.380;2023-11-21T11:16:04;93894.97;;;9.56;77.88
39301;BME280;25019;42.626;23.380;2023-11-21T11:18:33;93976.31;;;10.21;77.60
39301;BME280;25019;42.626;23.380;2023-11-21T11:21:13;93917.16;;;9.83;78.25
39301;BME280;25019;42.626;23.380;2023-11-21T11:24:20;93965.34;;;10.07;77.89
39301;BME280;25019;42.626;23.380;2023-11-21T11:27:01;93963.16;;;9.99;78.89
39301;BME280;25019;42.626;23.380;2023-11-21T11:29:35;93951.25;;;10.01;78.56
39301;BME280;25019;42.626;23.380;2023-11-21T11:32:49;93888.31;;;9.54;79.46
39301;BME280;25019;42.626;23.380;2023-11-21T11:37:55;93908.97;;;9.84;79.28
39301;BME280;25019;42.626;23.380;2023-11-21T11:40:22;93934.56;;;10.06;78.88
39301;BME280;25019;42.626;23.380;2023-11-21T11:42:58;93911.56;;;9.79;79.27
39301;BME280;25019;42.626;23.380;2023-11-21T11:45:34;93932.69;;;10.01;79.88
39301;BME280;25019;42.626;23.380;2023-11-21T11:48:01;93868.50;;;9.62;79.39
39301;BME280;25019;42.626;23.380;2023-11-21T11:50:27;93898.31;;;9.79;79.50
39301;BME280;25019;42.626;23.380;2023-11-21T11:52:53;93943.28;;;10.01;79.90
39301;BME280;25019;42.626;23.380;2023-11-21T11:55:24;93841.69;;;9.20;80.66
39301;BME280;25019;42.626;23.380;2023-11-21T11:57:53;93899.00;;;9.64;79.86
39301;BME280;25019;42.626;23.380;2023-11-21T12:00:33;93889.84;;;9.44;80.88
39301;BME280;25019;42.626;23.380;2023-11-21T12:03:03;93942.63;;;9.84;80.90
39301;BME280;25019;42.626;23.380;2023-11-21T12:05:34;93930.81;;;9.64;80.74
39301;BME280;25019;42.626;23.380;2023-11-21T12:08:09;93925.38;;;9.49;81.89
39301;BME280;25019;42.626;23.380;2023-11-21T12:10:37;93945.34;;;9.56;81.54
39301;BME280;25019;42.626;23.380;2023-11-21T12:13:09;93943.69;;;9.50;82.15
39301;BME280;25019;42.626;23.380;2023-11-21T12:15:36;93945.41;;;9.62;81.96
39301;BME280;25019;42.626;23.380;2023-11-21T12:18:02;93887.34;;;9.00;81.85
39301;BME280;25019;42.626;23.380;2023-11-21T12:20:30;93858.94;;;8.63;83.05
39301;BME280;25019;42.626;23.380;2023-11-21T12:22:58;93960.72;;;9.27;84.31
39301;BME280;25019;42.626;23.380;2023-11-21T12:25:26;93958.16;;;9.10;84.56
39301;BME280;25019;42.626;23.380;2023-11-21T12:27:57;93945.66;;;9.05;85.96
39301;BME280;25019;42.626;23.380;2023-11-21T12:30:25;93939.63;;;9.10;86.81
39301;BME280;25019;42.626;23.380;2023-11-21T12:32:55;93954.16;;;9.07;87.33
39301;BME280;25019;42.626;23.380;2023-11-21T12:35:25;93950.06;;;8.94;88.21
39301;BME280;25019;42.626;23.380;2023-11-21T12:37:52;93840.09;;;8.15;89.54
39301;BME280;25019;42.626;23.380;2023-11-21T12:40:19;93959.13;;;8.76;88.99
39301;BME280;25019;42.626;23.380;2023-11-21T12:42:47;93949.78;;;8.68;90.04
39301;BME280;25019;42.626;23.380;2023-11-21T12:47:54;93862.00;;;8.32;90.30
39301;BME280;25019;42.626;23.380;2023-11-21T12:50:24;93878.78;;;8.43;91.21
39301;BME280;25019;42.626;23.380;2023-11-21T12:52:57;93951.97;;;8.99;90.42
39301;BME280;25019;42.626;23.380;2023-11-21T12:55:24;93870.75;;;8.55;88.98
39301;BME280;25019;42.626;23.380;2023-11-21T12:57:54;93911.38;;;8.93;89.44
39301;BME280;25019;42.626;23.380;2023-11-21T13:00:28;93916.22;;;8.74;90.71